sensor_id;sensor_type;location;lat;lon;timestamp;P1;durP1;ratioP1;P2;durP2;ratioP2
22439;SDS011;11387;51.612;7.210;2023-08-24T00:00:33;15.90;;;7.22;;
22439;SDS011;11387;51.612;7.210;2023-08-24T00:03:02;13.90;;;6.78;;
22439;SDS011;11387;51.612;7.210;2023-08-24T00:05:32;12.10;;;6.47;;
22439;SDS011;11387;51.612;7.210;2023-08-24T00:08:02;17.85;;;7.13;;
22439;SDS011;11387;51.612;7.210;2023-08-24T00:10:32;10.88;;;7.00;;
22439;SDS011;11387;51.612;7.210;2023-08-24T00:13:01;12.52;;;6.57;;
22439;SDS011;11387;51.612;7.210;2023-08-24T00:15:31;14.38;;;7.32;;
22439;SDS011;11387;51.612;7.210;2023-08-24T00:18:01;14.43;;;7.13;;
22439;SDS011;11387;51.612;7.210;2023-08-24T00:20:33;10.73;;;6.93;;
22439;SDS011;11387;51.612;7.210;2023-08-24T00:23:02;8.90;;;6.90;;
22439;SDS011;11387;51.612;7.210;2023-08-24T00:25:31;12.77;;;7.93;;
22439;SDS011;11387;51.612;7.210;2023-08-24T00:27:59;12.57;;;7.03;;
22439;SDS011;11387;51.612;7.210;2023-08-24T00:30:28;9.80;;;7.20;;
22439;SDS011;11387;51.612;7.210;2023-08-24T00:32:57;18.65;;;7.47;;
22439;SDS011;11387;51.612;7.210;2023-08-24T00:35:27;18.58;;;7.50;;
22439;SDS011;11387;51.612;7.210;2023-08-24T00:37:59;14.70;;;8.70;;
22439;SDS011;11387;51.612;7.210;2023-08-24T00:40:28;14.00;;;8.02;;
22439;SDS011;11387;51.612;7.210;2023-08-24T00:42:56;13.68;;;8.38;;
22439;SDS011;11387;51.612;7.210;2023-08-24T00:45:25;16.90;;;7.57;;
22439;SDS011;11387;51.612;7.210;2023-08-24T00:47:54;13.75;;;8.45;;
22439;SDS011;11387;51.612;7.210;2023-08-24T00:50:23;14.38;;;8.60;;
22439;SDS011;11387;51.612;7.210;2023-08-24T00:52:54;14.07;;;8.23;;
22439;SDS011;11387;51.612;7.210;2023-08-24T00:55:22;14.60;;;8.73;;
22439;SDS011;11387;51.612;7.210;2023-08-24T00:57:51;11.50;;;8.18;;
22439;SDS011;11387;51.612;7.210;2023-08-24T01:00:20;17.60;;;8.48;;
22439;SDS011;11387;51.612;7.210;2023-08-24T01:02:52;16.98;;;9.13;;
22439;SDS011;11387;51.612;7.210;2023-08-24T01:05:20;15.48;;;9.68;;
22439;SDS011;11387;51.612;7.210;2023-08-24T01:07:49;22.88;;;8.73;;
22439;SDS011;11387;51.612;7.210;2023-08-24T01:10:20;15.40;;;9.05;;
22439;SDS011;11387;51.612;7.210;2023-08-24T01:12:52;14.48;;;9.55;;
22439;SDS011;11387;51.612;7.210;2023-08-24T01:15:31;23.65;;;13.00;;
22439;SDS011;11387;51.612;7.210;2023-08-24T01:18:04;12.10;;;8.82;;
22439;SDS011;11387;51.612;7.210;2023-08-24T01:20:37;12.68;;;8.95;;
22439;SDS011;11387;51.612;7.210;2023-08-24T01:23:17;15.85;;;9.70;;
22439;SDS011;11387;51.612;7.210;2023-08-24T01:26:05;20.35;;;10.57;;
22439;SDS011;11387;51.612;7.210;2023-08-24T01:28:38;18.23;;;8.90;;
22439;SDS011;11387;51.612;7.210;2023-08-24T01:31:08;15.45;;;9.20;;
22439;SDS011;11387;51.612;7.210;2023-08-24T01:33:37;15.88;;;10.40;;
22439;SDS011;11387;51.612;7.210;2023-08-24T01:36:08;12.68;;;9.43;;
22439;SDS011;11387;51.612;7.210;2023-08-24T01:38:37;12.52;;;8.95;;
22439;SDS011;11387;51.612;7.210;2023-08-24T01:41:11;16.95;;;8.55;;
22439;SDS011;11387;51.612;7.210;2023-08-24T01:43:48;17.67;;;8.57;;
22439;SDS011;11387;51.612;7.210;2023-08-24T01:46:21;11.95;;;8.93;;
22439;SDS011;11387;51.612;7.210;2023-08-24T01:48:50;16.02;;;9.85;;
22439;SDS011;11387;51.612;7.210;2023-08-24T01:51:21;15.18;;;9.20;;
22439;SDS011;11387;51.612;7.210;2023-08-24T01:53:51;16.83;;;10.13;;
22439;SDS011;11387;51.612;7.210;2023-08-24T01:56:22;12.35;;;9.57;;
22439;SDS011;11387;51.612;7.210;2023-08-24T01:58:52;14.88;;;9.95;;
22439;SDS011;11387;51.612;7.210;2023-08-24T02:01:21;17.77;;;10.15;;
22439;SDS011;11387;51.612;7.210;2023-08-24T02:03:49;16.38;;;9.55;;
22439;SDS011;11387;51.612;7.210;2023-08-24T02:06:18;13.82;;;9.70;;
22439;SDS011;11387;51.612;7.210;2023-08-24T02:08:49;14.70;;;10.20;;
22439;SDS011;11387;51.612;7.210;2023-08-24T02:11:18;16.33;;;10.32;;
22439;SDS011;11387;51.612;7.210;2023-08-24T02:13:48;19.60;;;10.60;;
22439;SDS011;11387;51.612;7.210;2023-08-24T02:16:16;15.57;;;9.90;;
22439;SDS011;11387;51.612;7.210;2023-08-24T02:18:45;15.48;;;9.93;;
22439;SDS011;11387;51.612;7.210;2023-08-24T02:21:14;18.83;;;10.80;;
22439;SDS011;11387;51.612;7.210;2023-08-24T02:23:43;15.00;;;11.02;;
22439;SDS011;11387;51.612;7.210;2023-08-24T02:26:12;17.00;;;9.45;;
22439;SDS011;11387;51.612;7.210;2023-08-24T02:28:40;15.93;;;11.13;;
22439;SDS011;11387;51.612;7.210;2023-08-24T02:31:10;19.15;;;10.43;;
22439;SDS011;11387;51.612;7.210;2023-08-24T02:33:39;20.52;;;11.50;;
22439;SDS011;11387;51.612;7.210;2023-08-24T02:36:08;18.40;;;11.70;;
22439;SDS011;11387;51.612;7.210;2023-08-24T02:38:37;13.50;;;11.10;;
22439;SDS011;11387;51.612;7.210;2023-08-24T02:41:10;16.27;;;10.70;;
22439;SDS011;11387;51.612;7.210;2023-08-24T02:43:41;22.38;;;12.23;;
22439;SDS011;11387;51.612;7.210;2023-08-24T02:46:15;18.05;;;11.32;;
22439;SDS011;11387;51.612;7.210;2023-08-24T02:48:45;19.30;;;11.98;;
22439;SDS011;11387;51.612;7.210;2023-08-24T02:51:14;14.98;;;11.88;;
22439;SDS011;11387;51.612;7.210;2023-08-24T02:53:46;17.05;;;11.82;;
22439;SDS011;11387;51.612;7.210;2023-08-24T02:56:14;20.50;;;11.38;;
22439;SDS011;11387;51.612;7.210;2023-08-24T02:58:44;17.08;;;11.50;;
22439;SDS011;11387;51.612;7.210;2023-08-24T03:01:12;16.58;;;11.35;;
22439;SDS011;11387;51.612;7.210;2023-08-24T03:03:42;18.90;;;11.43;;
22439;SDS011;11387;51.612;7.210;2023-08-24T03:06:31;18.60;;;12.07;;
22439;SDS011;11387;51.612;7.210;2023-08-24T03:09:00;17.70;;;11.52;;
22439;SDS011;11387;51.612;7.210;2023-08-24T03:11:31;16.25;;;11.07;;
22439;SDS011;11387;51.612;7.210;2023-08-24T03:14:00;15.23;;;11.27;;
22439;SDS011;11387;51.612;7.210;2023-08-24T03:16:30;16.95;;;10.90;;
22439;SDS011;11387;51.612;7.210;2023-08-24T03:19:00;18.35;;;10.82;;
22439;SDS011;11387;51.612;7.210;2023-08-24T03:21:29;20.85;;;12.52;;
22439;SDS011;11387;51.612;7.210;2023-08-24T03:23:58;30.98;;;11.52;;
22439;SDS011;11387;51.612;7.210;2023-08-24T03:26:27;15.00;;;11.25;;
22439;SDS011;11387;51.612;7.210;2023-08-24T03:28:56;14.40;;;11.25;;
22439;SDS011;11387;51.612;7.210;2023-08-24T03:31:24;22.95;;;12.68;;
22439;SDS011;11387;51.612;7.210;2023-08-24T03:33:54;14.57;;;11.75;;
22439;SDS011;11387;51.612;7.210;2023-08-24T03:36:24;21.27;;;12.88;;
22439;SDS011;11387;51.612;7.210;2023-08-24T03:38:52;16.35;;;11.52;;
22439;SDS011;11387;51.612;7.210;2023-08-24T03:41:21;15.95;;;12.15;;
22439;SDS011;11387;51.612;7.210;2023-08-24T03:43:49;15.25;;;11.27;;
22439;SDS011;11387;51.612;7.210;2023-08-24T03:46:18;18.98;;;11.82;;
22439;SDS011;11387;51.612;7.210;2023-08-24T03:48:47;17.23;;;12.52;;
22439;SDS011;11387;51.612;7.210;2023-08-24T03:51:16;14.98;;;11.38;;
22439;SDS011;11387;51.612;7.210;2023-08-24T03:53:51;16.70;;;12.10;;
22439;SDS011;11387;51.612;7.210;2023-08-24T03:56:19;16.48;;;10.88;;
22439;SDS011;11387;51.612;7.210;2023-08-24T03:58:48;19.88;;;12.32;;
22439;SDS011;11387;51.612;7.210;2023-08-24T04:01:17;19.40;;;11.63;;
22439;SDS011;11387;51.612;7.210;2023-08-24T04:03:54;14.90;;;11.63;;
22439;SDS011;11387;51.612;7.210;2023-08-24T04:06:25;13.05;;;11.38;;
22439;SDS011;11387;51.612;7.210;2023-08-24T04:08:55;23.67;;;12.55;;
22439;SDS011;11387;51.612;7.210;2023-08-24T04:11:24;14.57;;;12.35;;
22439;SDS011;11387;51.612;7.210;2023-08-24T04:13:53;17.15;;;12.15;;
22439;SDS011;11387;51.612;7.210;2023-08-24T04:16:22;14.68;;;12.40;;
22439;SDS011;11387;51.612;7.210;2023-08-24T04:18:50;16.85;;;12.70;;
22439;SDS011;11387;51.612;7.210;2023-08-24T04:21:19;19.63;;;12.27;;
22439;SDS011;11387;51.612;7.210;2023-08-24T04:23:47;21.70;;;13.27;;
22439;SDS011;11387;51.612;7.210;2023-08-24T04:26:18;19.80;;;12.93;;
22439;SDS011;11387;51.612;7.210;2023-08-24T04:28:46;18.00;;;13.93;;
22439;SDS011;11387;51.612;7.210;2023-08-24T04:31:15;18.42;;;12.65;;
22439;SDS011;11387;51.612;7.210;2023-08-24T04:33:43;20.45;;;13.57;;
22439;SDS011;11387;51.612;7.210;2023-08-24T04:36:12;18.30;;;12.85;;
22439;SDS011;11387;51.612;7.210;2023-08-24T04:38:41;19.58;;;14.30;;
22439;SDS011;11387;51.612;7.210;2023-08-24T04:41:10;20.15;;;13.80;;
22439;SDS011;11387;51.612;7.210;2023-08-24T04:43:41;22.52;;;15.23;;
22439;SDS011;11387;51.612;7.210;2023-08-24T04:46:13;18.15;;;15.02;;
22439;SDS011;11387;51.612;7.210;2023-08-24T04:48:42;23.90;;;16.40;;
22439;SDS011;11387;51.612;7.210;2023-08-24T04:51:10;23.73;;;16.27;;
22439;SDS011;11387;51.612;7.210;2023-08-24T04:53:39;23.17;;;17.90;;
22439;SDS011;11387;51.612;7.210;2023-08-24T04:56:08;22.98;;;17.75;;
22439;SDS011;11387;51.612;7.210;2023-08-24T04:58:36;24.77;;;18.98;;
22439;SDS011;11387;51.612;7.210;2023-08-24T05:01:07;32.92;;;23.70;;
22439;SDS011;11387;51.612;7.210;2023-08-24T05:03:37;22.75;;;19.35;;
22439;SDS011;11387;51.612;7.210;2023-08-24T05:06:06;27.05;;;21.30;;
22439;SDS011;11387;51.612;7.210;2023-08-24T05:08:35;25.90;;;22.35;;
22439;SDS011;11387;51.612;7.210;2023-08-24T05:11:09;29.55;;;19.17;;
22439;SDS011;11387;51.612;7.210;2023-08-24T05:13:40;30.75;;;23.55;;
22439;SDS011;11387;51.612;7.210;2023-08-24T05:16:12;30.30;;;20.75;;
22439;SDS011;11387;51.612;7.210;2023-08-24T05:18:41;29.88;;;20.20;;
22439;SDS011;11387;51.612;7.210;2023-08-24T05:21:10;31.92;;;21.80;;
22439;SDS011;11387;51.612;7.210;2023-08-24T05:23:39;31.80;;;19.02;;
22439;SDS011;11387;51.612;7.210;2023-08-24T05:26:08;28.00;;;18.60;;
22439;SDS011;11387;51.612;7.210;2023-08-24T05:28:37;27.27;;;17.63;;
22439;SDS011;11387;51.612;7.210;2023-08-24T05:31:06;27.45;;;16.73;;
22439;SDS011;11387;51.612;7.210;2023-08-24T05:33:37;21.35;;;16.25;;
22439;SDS011;11387;51.612;7.210;2023-08-24T05:36:07;24.45;;;14.07;;
22439;SDS011;11387;51.612;7.210;2023-08-24T05:38:36;28.00;;;15.52;;
22439;SDS011;11387;51.612;7.210;2023-08-24T05:41:15;17.65;;;14.07;;
22439;SDS011;11387;51.612;7.210;2023-08-24T05:43:44;19.77;;;13.15;;
22439;SDS011;11387;51.612;7.210;2023-08-24T05:46:12;22.90;;;13.25;;
22439;SDS011;11387;51.612;7.210;2023-08-24T05:48:42;19.08;;;12.30;;
22439;SDS011;11387;51.612;7.210;2023-08-24T05:51:11;21.77;;;13.80;;
22439;SDS011;11387;51.612;7.210;2023-08-24T05:53:41;17.38;;;12.32;;
22439;SDS011;11387;51.612;7.210;2023-08-24T05:56:09;18.75;;;14.00;;
22439;SDS011;11387;51.612;7.210;2023-08-24T05:58:38;16.98;;;11.98;;
22439;SDS011;11387;51.612;7.210;2023-08-24T06:01:07;23.58;;;11.85;;
22439;SDS011;11387;51.612;7.210;2023-08-24T06:03:38;21.15;;;11.73;;
22439;SDS011;11387;51.612;7.210;2023-08-24T06:06:08;24.77;;;11.60;;
22439;SDS011;11387;51.612;7.210;2023-08-24T06:08:37;22.75;;;11.73;;
22439;SDS011;11387;51.612;7.210;2023-08-24T06:11:06;27.38;;;12.90;;
22439;SDS011;11387;51.612;7.210;2023-08-24T06:13:38;21.60;;;12.35;;
22439;SDS011;11387;51.612;7.210;2023-08-24T06:16:07;25.27;;;11.80;;
22439;SDS011;11387;51.612;7.210;2023-08-24T06:18:37;20.02;;;11.40;;
22439;SDS011;11387;51.612;7.210;2023-08-24T06:21:13;18.50;;;12.75;;
22439;SDS011;11387;51.612;7.210;2023-08-24T06:23:45;20.05;;;11.68;;
22439;SDS011;11387;51.612;7.210;2023-08-24T06:26:14;16.70;;;11.45;;
22439;SDS011;11387;51.612;7.210;2023-08-24T06:28:43;15.90;;;10.88;;
22439;SDS011;11387;51.612;7.210;2023-08-24T06:31:12;15.85;;;11.70;;
22439;SDS011;11387;51.612;7.210;2023-08-24T06:34:06;17.33;;;11.77;;
22439;SDS011;11387;51.612;7.210;2023-08-24T06:36:52;18.20;;;10.77;;
22439;SDS011;11387;51.612;7.210;2023-08-24T06:39:21;17.42;;;10.75;;
22439;SDS011;11387;51.612;7.210;2023-08-24T06:41:52;15.70;;;10.60;;
22439;SDS011;11387;51.612;7.210;2023-08-24T06:44:20;15.73;;;10.63;;
22439;SDS011;11387;51.612;7.210;2023-08-24T06:46:49;16.40;;;10.57;;
22439;SDS011;11387;51.612;7.210;2023-08-24T06:49:19;12.45;;;9.90;;
22439;SDS011;11387;51.612;7.210;2023-08-24T06:51:47;21.27;;;10.80;;
22439;SDS011;11387;51.612;7.210;2023-08-24T06:54:18;22.83;;;11.30;;
22439;SDS011;11387;51.612;7.210;2023-08-24T06:57:08;21.45;;;12.23;;
22439;SDS011;11387;51.612;7.210;2023-08-24T06:59:37;17.42;;;12.07;;
22439;SDS011;11387;51.612;7.210;2023-08-24T07:02:06;17.92;;;11.80;;
22439;SDS011;11387;51.612;7.210;2023-08-24T07:04:36;20.33;;;12.57;;
22439;SDS011;11387;51.612;7.210;2023-08-24T07:07:07;13.43;;;11.02;;
22439;SDS011;11387;51.612;7.210;2023-08-24T07:09:37;21.80;;;12.00;;
22439;SDS011;11387;51.612;7.210;2023-08-24T07:12:09;17.75;;;11.23;;
22439;SDS011;11387;51.612;7.210;2023-08-24T07:14:37;16.40;;;12.48;;
22439;SDS011;11387;51.612;7.210;2023-08-24T07:17:07;16.50;;;10.85;;
22439;SDS011;11387;51.612;7.210;2023-08-24T07:19:37;15.35;;;10.68;;
22439;SDS011;11387;51.612;7.210;2023-08-24T07:22:05;19.70;;;10.93;;
22439;SDS011;11387;51.612;7.210;2023-08-24T07:24:37;25.15;;;10.70;;
22439;SDS011;11387;51.612;7.210;2023-08-24T07:27:10;16.42;;;10.13;;
22439;SDS011;11387;51.612;7.210;2023-08-24T07:29:39;18.08;;;10.38;;
22439;SDS011;11387;51.612;7.210;2023-08-24T07:32:08;12.10;;;9.27;;
22439;SDS011;11387;51.612;7.210;2023-08-24T07:34:37;17.73;;;10.63;;
22439;SDS011;11387;51.612;7.210;2023-08-24T07:37:05;15.40;;;9.60;;
22439;SDS011;11387;51.612;7.210;2023-08-24T07:39:34;13.50;;;9.20;;
22439;SDS011;11387;51.612;7.210;2023-08-24T07:42:04;18.73;;;9.50;;
22439;SDS011;11387;51.612;7.210;2023-08-24T07:44:33;14.48;;;8.45;;
22439;SDS011;11387;51.612;7.210;2023-08-24T07:47:03;18.13;;;8.05;;
22439;SDS011;11387;51.612;7.210;2023-08-24T07:49:31;14.73;;;8.48;;
22439;SDS011;11387;51.612;7.210;2023-08-24T07:52:00;12.90;;;7.93;;
22439;SDS011;11387;51.612;7.210;2023-08-24T07:54:31;14.40;;;7.25;;
22439;SDS011;11387;51.612;7.210;2023-08-24T07:56:59;13.50;;;8.35;;
22439;SDS011;11387;51.612;7.210;2023-08-24T07:59:29;10.18;;;8.18;;
22439;SDS011;11387;51.612;7.210;2023-08-24T08:01:58;11.57;;;6.82;;
22439;SDS011;11387;51.612;7.210;2023-08-24T08:04:29;9.68;;;6.93;;
22439;SDS011;11387;51.612;7.210;2023-08-24T08:06:58;13.35;;;7.35;;
22439;SDS011;11387;51.612;7.210;2023-08-24T08:09:27;14.27;;;7.30;;
22439;SDS011;11387;51.612;7.210;2023-08-24T08:11:56;15.98;;;7.00;;
22439;SDS011;11387;51.612;7.210;2023-08-24T08:14:25;13.70;;;7.15;;
22439;SDS011;11387;51.612;7.210;2023-08-24T08:16:57;10.15;;;7.07;;
22439;SDS011;11387;51.612;7.210;2023-08-24T08:19:29;13.27;;;6.22;;
22439;SDS011;11387;51.612;7.210;2023-08-24T08:21:58;10.35;;;6.75;;
22439;SDS011;11387;51.612;7.210;2023-08-24T08:24:26;11.90;;;5.78;;
22439;SDS011;11387;51.612;7.210;2023-08-24T08:26:55;8.40;;;6.07;;
22439;SDS011;11387;51.612;7.210;2023-08-24T08:29:24;14.70;;;6.30;;
22439;SDS011;11387;51.612;7.210;2023-08-24T08:31:53;10.52;;;6.35;;
22439;SDS011;11387;51.612;7.210;2023-08-24T08:34:23;9.43;;;5.57;;
22439;SDS011;11387;51.612;7.210;2023-08-24T08:36:52;8.88;;;6.10;;
22439;SDS011;11387;51.612;7.210;2023-08-24T08:39:20;12.85;;;6.05;;
22439;SDS011;11387;51.612;7.210;2023-08-24T08:41:51;11.68;;;5.40;;
22439;SDS011;11387;51.612;7.210;2023-08-24T08:44:20;14.32;;;6.00;;
22439;SDS011;11387;51.612;7.210;2023-08-24T08:47:01;10.18;;;6.53;;
22439;SDS011;11387;51.612;7.210;2023-08-24T08:49:31;13.43;;;6.03;;
22439;SDS011;11387;51.612;7.210;2023-08-24T08:52:02;9.13;;;5.85;;
22439;SDS011;11387;51.612;7.210;2023-08-24T08:54:31;9.88;;;6.15;;
22439;SDS011;11387;51.612;7.210;2023-08-24T08:57:01;12.32;;;4.10;;
22439;SDS011;11387;51.612;7.210;2023-08-24T08:59:30;10.95;;;5.47;;
22439;SDS011;11387;51.612;7.210;2023-08-24T09:02:00;8.80;;;4.85;;
22439;SDS011;11387;51.612;7.210;2023-08-24T09:04:31;13.40;;;4.93;;
22439;SDS011;11387;51.612;7.210;2023-08-24T09:07:01;7.32;;;4.43;;
22439;SDS011;11387;51.612;7.210;2023-08-24T09:09:37;6.82;;;4.03;;
22439;SDS011;11387;51.612;7.210;2023-08-24T09:12:07;7.50;;;4.53;;
22439;SDS011;11387;51.612;7.210;2023-08-24T09:14:36;10.25;;;4.80;;
22439;SDS011;11387;51.612;7.210;2023-08-24T09:17:05;11.35;;;4.72;;
22439;SDS011;11387;51.612;7.210;2023-08-24T09:19:35;8.07;;;4.18;;
22439;SDS011;11387;51.612;7.210;2023-08-24T09:22:07;8.48;;;4.75;;
22439;SDS011;11387;51.612;7.210;2023-08-24T09:24:36;8.27;;;4.57;;
22439;SDS011;11387;51.612;7.210;2023-08-24T09:27:13;5.47;;;3.85;;
22439;SDS011;11387;51.612;7.210;2023-08-24T09:29:43;7.55;;;3.75;;
22439;SDS011;11387;51.612;7.210;2023-08-24T09:32:21;10.05;;;4.80;;
22439;SDS011;11387;51.612;7.210;2023-08-24T09:34:54;6.60;;;3.85;;
22439;SDS011;11387;51.612;7.210;2023-08-24T09:37:23;6.68;;;3.97;;
22439;SDS011;11387;51.612;7.210;2023-08-24T09:39:55;8.63;;;4.97;;
22439;SDS011;11387;51.612;7.210;2023-08-24T09:42:31;7.28;;;3.97;;
22439;SDS011;11387;51.612;7.210;2023-08-24T09:45:02;10.60;;;4.28;;
22439;SDS011;11387;51.612;7.210;2023-08-24T09:47:31;9.10;;;5.18;;
22439;SDS011;11387;51.612;7.210;2023-08-24T09:50:02;6.93;;;3.90;;
22439;SDS011;11387;51.612;7.210;2023-08-24T09:52:31;9.70;;;4.68;;
22439;SDS011;11387;51.612;7.210;2023-08-24T09:55:02;7.68;;;4.40;;
22439;SDS011;11387;51.612;7.210;2023-08-24T09:57:36;9.75;;;5.45;;
22439;SDS011;11387;51.612;7.210;2023-08-24T10:00:08;8.60;;;4.93;;
22439;SDS011;11387;51.612;7.210;2023-08-24T10:02:44;9.25;;;4.70;;
22439;SDS011;11387;51.612;7.210;2023-08-24T10:05:23;7.82;;;5.35;;
22439;SDS011;11387;51.612;7.210;2023-08-24T10:07:56;9.63;;;4.53;;
22439;SDS011;11387;51.612;7.210;2023-08-24T10:10:27;10.65;;;5.22;;
22439;SDS011;11387;51.612;7.210;2023-08-24T10:12:59;7.18;;;5.00;;
22439;SDS011;11387;51.612;7.210;2023-08-24T10:15:45;8.32;;;4.63;;
22439;SDS011;11387;51.612;7.210;2023-08-24T10:18:16;9.23;;;5.07;;
22439;SDS011;11387;51.612;7.210;2023-08-24T10:20:48;11.93;;;5.30;;
22439;SDS011;11387;51.612;7.210;2023-08-24T10:23:19;12.95;;;5.75;;
22439;SDS011;11387;51.612;7.210;2023-08-24T10:25:48;13.27;;;5.40;;
22439;SDS011;11387;51.612;7.210;2023-08-24T10:28:20;12.98;;;5.22;;
22439;SDS011;11387;51.612;7.210;2023-08-24T10:30:50;14.35;;;5.50;;
22439;SDS011;11387;51.612;7.210;2023-08-24T10:33:20;10.38;;;6.07;;
22439;SDS011;11387;51.612;7.210;2023-08-24T10:35:51;7.80;;;5.20;;
22439;SDS011;11387;51.612;7.210;2023-08-24T10:38:23;9.55;;;5.70;;
22439;SDS011;11387;51.612;7.210;2023-08-24T10:40:53;10.18;;;5.43;;
22439;SDS011;11387;51.612;7.210;2023-08-24T10:43:25;9.02;;;5.57;;
22439;SDS011;11387;51.612;7.210;2023-08-24T10:45:54;7.68;;;4.53;;
22439;SDS011;11387;51.612;7.210;2023-08-24T10:48:24;10.00;;;5.70;;
22439;SDS011;11387;51.612;7.210;2023-08-24T10:53:51;11.07;;;6.32;;
22439;SDS011;11387;51.612;7.210;2023-08-24T10:56:21;11.23;;;6.00;;
22439;SDS011;11387;51.612;7.210;2023-08-24T10:59:09;9.82;;;5.45;;
22439;SDS011;11387;51.612;7.210;2023-08-24T11:01:40;11.07;;;5.53;;
22439;SDS011;11387;51.612;7.210;2023-08-24T11:04:10;10.73;;;5.95;;
22439;SDS011;11387;51.612;7.210;2023-08-24T11:06:55;7.15;;;4.30;;
22439;SDS011;11387;51.612;7.210;2023-08-24T11:09:26;8.93;;;3.55;;
22439;SDS011;11387;51.612;7.210;2023-08-24T11:12:16;7.38;;;3.88;;
22439;SDS011;11387;51.612;7.210;2023-08-24T11:14:50;10.18;;;4.30;;
22439;SDS011;11387;51.612;7.210;2023-08-24T11:17:22;9.63;;;4.70;;
22439;SDS011;11387;51.612;7.210;2023-08-24T11:19:53;15.35;;;6.15;;
22439;SDS011;11387;51.612;7.210;2023-08-24T11:22:23;10.10;;;4.07;;
22439;SDS011;11387;51.612;7.210;2023-08-24T11:24:53;5.70;;;3.60;;
22439;SDS011;11387;51.612;7.210;2023-08-24T11:27:22;6.28;;;3.45;;
22439;SDS011;11387;51.612;7.210;2023-08-24T11:29:57;10.77;;;4.10;;
22439;SDS011;11387;51.612;7.210;2023-08-24T11:32:28;8.82;;;3.80;;
22439;SDS011;11387;51.612;7.210;2023-08-24T11:34:57;9.63;;;3.70;;
22439;SDS011;11387;51.612;7.210;2023-08-24T11:37:27;19.48;;;4.13;;
22439;SDS011;11387;51.612;7.210;2023-08-24T11:39:56;8.70;;;3.92;;
22439;SDS011;11387;51.612;7.210;2023-08-24T11:42:24;9.57;;;3.85;;
22439;SDS011;11387;51.612;7.210;2023-08-24T11:44:54;10.30;;;4.40;;
22439;SDS011;11387;51.612;7.210;2023-08-24T11:47:23;11.95;;;3.95;;
22439;SDS011;11387;51.612;7.210;2023-08-24T11:49:51;7.30;;;4.05;;
22439;SDS011;11387;51.612;7.210;2023-08-24T11:52:20;9.13;;;3.88;;
22439;SDS011;11387;51.612;7.210;2023-08-24T11:54:53;12.57;;;4.10;;
22439;SDS011;11387;51.612;7.210;2023-08-24T11:57:22;6.45;;;4.35;;
22439;SDS011;11387;51.612;7.210;2023-08-24T12:00:06;6.30;;;3.60;;
22439;SDS011;11387;51.612;7.210;2023-08-24T12:02:37;13.15;;;4.28;;
22439;SDS011;11387;51.612;7.210;2023-08-24T12:05:06;10.13;;;4.35;;
22439;SDS011;11387;51.612;7.210;2023-08-24T12:07:35;7.75;;;3.63;;
22439;SDS011;11387;51.612;7.210;2023-08-24T12:10:07;4.85;;;3.38;;
22439;SDS011;11387;51.612;7.210;2023-08-24T12:12:36;10.05;;;3.85;;
22439;SDS011;11387;51.612;7.210;2023-08-24T12:15:06;6.47;;;3.78;;
22439;SDS011;11387;51.612;7.210;2023-08-24T12:17:41;9.25;;;3.50;;
22439;SDS011;11387;51.612;7.210;2023-08-24T12:20:16;9.82;;;3.50;;
22439;SDS011;11387;51.612;7.210;2023-08-24T12:22:50;10.60;;;3.65;;
22439;SDS011;11387;51.612;7.210;2023-08-24T12:25:24;8.90;;;3.42;;
22439;SDS011;11387;51.612;7.210;2023-08-24T12:28:08;9.82;;;3.25;;
22439;SDS011;11387;51.612;7.210;2023-08-24T12:30:44;7.13;;;3.00;;
22439;SDS011;11387;51.612;7.210;2023-08-24T12:33:23;7.20;;;3.17;;
22439;SDS011;11387;51.612;7.210;2023-08-24T12:35:53;5.25;;;2.85;;
22439;SDS011;11387;51.612;7.210;2023-08-24T12:38:22;7.53;;;2.95;;
22439;SDS011;11387;51.612;7.210;2023-08-24T12:40:54;6.95;;;2.92;;
22439;SDS011;11387;51.612;7.210;2023-08-24T12:43:25;4.68;;;2.38;;
22439;SDS011;11387;51.612;7.210;2023-08-24T12:45:55;12.30;;;2.90;;
22439;SDS011;11387;51.612;7.210;2023-08-24T12:48:25;5.03;;;2.70;;
22439;SDS011;11387;51.612;7.210;2023-08-24T12:50:55;9.55;;;2.90;;
22439;SDS011;11387;51.612;7.210;2023-08-24T12:53:27;7.50;;;3.85;;
22439;SDS011;11387;51.612;7.210;2023-08-24T12:55:57;6.80;;;3.05;;
22439;SDS011;11387;51.612;7.210;2023-08-24T12:58:26;9.85;;;3.33;;
22439;SDS011;11387;51.612;7.210;2023-08-24T13:00:57;8.68;;;4.00;;
22439;SDS011;11387;51.612;7.210;2023-08-24T13:03:26;5.45;;;3.83;;
22439;SDS011;11387;51.612;7.210;2023-08-24T13:05:55;9.75;;;4.03;;
22439;SDS011;11387;51.612;7.210;2023-08-24T13:08:39;9.20;;;3.45;;
22439;SDS011;11387;51.612;7.210;2023-08-24T13:11:12;4.90;;;2.70;;
22439;SDS011;11387;51.612;7.210;2023-08-24T13:13:41;11.40;;;3.67;;
22439;SDS011;11387;51.612;7.210;2023-08-24T13:16:10;5.90;;;3.20;;
22439;SDS011;11387;51.612;7.210;2023-08-24T13:18:41;14.07;;;3.10;;
22439;SDS011;11387;51.612;7.210;2023-08-24T13:21:10;8.20;;;3.10;;
22439;SDS011;11387;51.612;7.210;2023-08-24T13:23:41;5.38;;;2.70;;
22439;SDS011;11387;51.612;7.210;2023-08-24T13:26:18;6.25;;;2.85;;
22439;SDS011;11387;51.612;7.210;2023-08-24T13:28:47;8.23;;;3.10;;
22439;SDS011;11387;51.612;7.210;2023-08-24T13:31:16;11.70;;;3.60;;
22439;SDS011;11387;51.612;7.210;2023-08-24T13:33:45;7.00;;;2.92;;
22439;SDS011;11387;51.612;7.210;2023-08-24T13:36:14;6.25;;;3.55;;
22439;SDS011;11387;51.612;7.210;2023-08-24T13:38:49;6.43;;;3.63;;
22439;SDS011;11387;51.612;7.210;2023-08-24T13:41:20;13.73;;;3.72;;
22439;SDS011;11387;51.612;7.210;2023-08-24T13:43:49;8.73;;;2.65;;
22439;SDS011;11387;51.612;7.210;2023-08-24T13:46:18;6.63;;;3.10;;
22439;SDS011;11387;51.612;7.210;2023-08-24T13:48:47;9.07;;;3.35;;
22439;SDS011;11387;51.612;7.210;2023-08-24T13:51:16;5.90;;;3.22;;
22439;SDS011;11387;51.612;7.210;2023-08-24T13:53:45;8.23;;;3.33;;
22439;SDS011;11387;51.612;7.210;2023-08-24T13:56:15;12.82;;;3.10;;
22439;SDS011;11387;51.612;7.210;2023-08-24T13:58:46;8.25;;;3.33;;
22439;SDS011;11387;51.612;7.210;2023-08-24T14:01:17;9.93;;;3.72;;
22439;SDS011;11387;51.612;7.210;2023-08-24T14:03:46;11.80;;;3.33;;
22439;SDS011;11387;51.612;7.210;2023-08-24T14:06:15;7.63;;;2.88;;
22439;SDS011;11387;51.612;7.210;2023-08-24T14:08:44;9.55;;;3.30;;
22439;SDS011;11387;51.612;7.210;2023-08-24T14:11:15;11.73;;;3.47;;
22439;SDS011;11387;51.612;7.210;2023-08-24T14:13:45;7.72;;;3.17;;
22439;SDS011;11387;51.612;7.210;2023-08-24T14:16:17;10.40;;;4.40;;
22439;SDS011;11387;51.612;7.210;2023-08-24T14:18:47;7.00;;;3.42;;
22439;SDS011;11387;51.612;7.210;2023-08-24T14:21:16;6.22;;;3.30;;
22439;SDS011;11387;51.612;7.210;2023-08-24T14:24:02;11.05;;;4.22;;
22439;SDS011;11387;51.612;7.210;2023-08-24T14:26:31;8.95;;;4.13;;
22439;SDS011;11387;51.612;7.210;2023-08-24T14:29:01;10.85;;;4.10;;
22439;SDS011;11387;51.612;7.210;2023-08-24T14:31:37;11.80;;;3.40;;
22439;SDS011;11387;51.612;7.210;2023-08-24T14:34:06;14.75;;;4.53;;
22439;SDS011;11387;51.612;7.210;2023-08-24T14:36:36;12.00;;;3.90;;
22439;SDS011;11387;51.612;7.210;2023-08-24T14:39:04;7.90;;;3.28;;
22439;SDS011;11387;51.612;7.210;2023-08-24T14:41:34;9.45;;;4.00;;
22439;SDS011;11387;51.612;7.210;2023-08-24T14:44:04;8.00;;;3.42;;
22439;SDS011;11387;51.612;7.210;2023-08-24T14:46:35;6.78;;;3.50;;
22439;SDS011;11387;51.612;7.210;2023-08-24T14:49:09;8.43;;;3.85;;
22439;SDS011;11387;51.612;7.210;2023-08-24T14:51:37;14.10;;;4.38;;
22439;SDS011;11387;51.612;7.210;2023-08-24T14:54:09;8.70;;;3.67;;
22439;SDS011;11387;51.612;7.210;2023-08-24T14:56:40;10.38;;;3.50;;